sensor_id;sensor_type;location;lat;lon;timestamp;P1;durP1;ratioP1;P2;durP2;ratioP2
8036;SDS011;4061;51.360;7.340;2023-02-13T00:00:14;10.23;;;5.07;;
8036;SDS011;4061;51.360;7.340;2023-02-13T00:02:42;10.27;;;4.97;;
8036;SDS011;4061;51.360;7.340;2023-02-13T00:05:09;10.17;;;5.53;;
8036;SDS011;4061;51.360;7.340;2023-02-13T00:07:36;13.97;;;5.40;;
8036;SDS011;4061;51.360;7.340;2023-02-13T00:10:04;8.70;;;5.43;;
8036;SDS011;4061;51.360;7.340;2023-02-13T00:12:31;8.87;;;5.17;;
8036;SDS011;4061;51.360;7.340;2023-02-13T00:14:58;6.47;;;3.90;;
8036;SDS011;4061;51.360;7.340;2023-02-13T00:17:27;5.93;;;3.93;;
8036;SDS011;4061;51.360;7.340;2023-02-13T00:19:54;5.70;;;4.00;;
8036;SDS011;4061;51.360;7.340;2023-02-13T00:22:21;8.97;;;4.97;;
8036;SDS011;4061;51.360;7.340;2023-02-13T00:24:49;7.27;;;4.47;;
8036;SDS011;4061;51.360;7.340;2023-02-13T00:27:16;6.57;;;4.00;;
8036;SDS011;4061;51.360;7.340;2023-02-13T00:29:43;8.13;;;4.07;;
8036;SDS011;4061;51.360;7.340;2023-02-13T00:32:10;7.73;;;3.90;;
8036;SDS011;4061;51.360;7.340;2023-02-13T00:34:39;5.70;;;3.90;;
8036;SDS011;4061;51.360;7.340;2023-02-13T00:37:08;7.03;;;4.27;;
8036;SDS011;4061;51.360;7.340;2023-02-13T00:39:35;8.70;;;4.23;;
8036;SDS011;4061;51.360;7.340;2023-02-13T00:42:02;8.17;;;3.83;;
8036;SDS011;4061;51.360;7.340;2023-02-13T00:44:29;8.03;;;4.13;;
8036;SDS011;4061;51.360;7.340;2023-02-13T00:46:56;8.83;;;3.70;;
8036;SDS011;4061;51.360;7.340;2023-02-13T00:49:24;5.17;;;3.77;;
8036;SDS011;4061;51.360;7.340;2023-02-13T00:51:52;4.40;;;3.20;;
8036;SDS011;4061;51.360;7.340;2023-02-13T00:54:19;8.47;;;4.00;;
8036;SDS011;4061;51.360;7.340;2023-02-13T00:56:47;4.87;;;3.13;;
8036;SDS011;4061;51.360;7.340;2023-02-13T00:59:14;4.67;;;3.07;;
8036;SDS011;4061;51.360;7.340;2023-02-13T01:01:41;5.40;;;3.60;;
8036;SDS011;4061;51.360;7.340;2023-02-13T01:04:08;6.97;;;3.27;;
8036;SDS011;4061;51.360;7.340;2023-02-13T01:06:36;3.67;;;2.93;;
8036;SDS011;4061;51.360;7.340;2023-02-13T01:09:04;4.53;;;3.00;;
8036;SDS011;4061;51.360;7.340;2023-02-13T01:11:31;5.83;;;3.10;;
8036;SDS011;4061;51.360;7.340;2023-02-13T01:13:58;7.50;;;3.23;;
8036;SDS011;4061;51.360;7.340;2023-02-13T01:16:26;5.90;;;3.10;;
8036;SDS011;4061;51.360;7.340;2023-02-13T01:18:53;4.60;;;3.17;;
8036;SDS011;4061;51.360;7.340;2023-02-13T01:21:21;4.63;;;2.80;;
8036;SDS011;4061;51.360;7.340;2023-02-13T01:23:48;2.80;;;2.60;;
8036;SDS011;4061;51.360;7.340;2023-02-13T01:26:18;4.93;;;3.10;;
8036;SDS011;4061;51.360;7.340;2023-02-13T01:28:45;3.73;;;2.63;;
8036;SDS011;4061;51.360;7.340;2023-02-13T01:31:12;4.50;;;2.83;;
8036;SDS011;4061;51.360;7.340;2023-02-13T01:33:40;4.50;;;2.90;;
8036;SDS011;4061;51.360;7.340;2023-02-13T01:36:07;4.07;;;3.00;;
8036;SDS011;4061;51.360;7.340;2023-02-13T01:38:35;5.47;;;3.60;;
8036;SDS011;4061;51.360;7.340;2023-02-13T01:41:02;6.27;;;3.40;;
8036;SDS011;4061;51.360;7.340;2023-02-13T01:43:44;5.60;;;3.00;;
8036;SDS011;4061;51.360;7.340;2023-02-13T01:46:11;6.90;;;3.50;;
8036;SDS011;4061;51.360;7.340;2023-02-13T01:48:39;3.47;;;2.67;;
8036;SDS011;4061;51.360;7.340;2023-02-13T01:51:06;4.90;;;2.33;;
8036;SDS011;4061;51.360;7.340;2023-02-13T01:53:35;6.27;;;3.20;;
8036;SDS011;4061;51.360;7.340;2023-02-13T01:56:04;4.27;;;2.90;;
8036;SDS011;4061;51.360;7.340;2023-02-13T01:58:33;6.13;;;3.10;;
8036;SDS011;4061;51.360;7.340;2023-02-13T02:01:03;5.00;;;3.20;;
8036;SDS011;4061;51.360;7.340;2023-02-13T02:03:32;3.23;;;2.50;;
8036;SDS011;4061;51.360;7.340;2023-02-13T02:06:01;4.10;;;2.70;;
8036;SDS011;4061;51.360;7.340;2023-02-13T02:08:28;3.17;;;2.47;;
8036;SDS011;4061;51.360;7.340;2023-02-13T02:10:57;4.57;;;3.23;;
8036;SDS011;4061;51.360;7.340;2023-02-13T02:13:26;3.77;;;3.00;;
8036;SDS011;4061;51.360;7.340;2023-02-13T02:15:53;4.47;;;2.73;;
8036;SDS011;4061;51.360;7.340;2023-02-13T02:18:22;4.47;;;2.40;;
8036;SDS011;4061;51.360;7.340;2023-02-13T02:21:14;3.37;;;2.77;;
8036;SDS011;4061;51.360;7.340;2023-02-13T02:24:03;3.93;;;2.50;;
8036;SDS011;4061;51.360;7.340;2023-02-13T02:26:41;6.67;;;3.03;;
8036;SDS011;4061;51.360;7.340;2023-02-13T02:29:22;5.30;;;2.97;;
8036;SDS011;4061;51.360;7.340;2023-02-13T02:32:01;4.90;;;2.83;;
8036;SDS011;4061;51.360;7.340;2023-02-13T02:34:34;3.37;;;2.30;;
8036;SDS011;4061;51.360;7.340;2023-02-13T02:37:04;4.87;;;2.87;;
8036;SDS011;4061;51.360;7.340;2023-02-13T02:39:41;7.20;;;2.73;;
8036;SDS011;4061;51.360;7.340;2023-02-13T02:42:14;3.97;;;2.33;;
8036;SDS011;4061;51.360;7.340;2023-02-13T02:44:47;4.20;;;2.57;;
8036;SDS011;4061;51.360;7.340;2023-02-13T02:47:22;3.77;;;2.40;;
8036;SDS011;4061;51.360;7.340;2023-02-13T02:50:11;3.40;;;2.33;;
8036;SDS011;4061;51.360;7.340;2023-02-13T02:52:43;3.00;;;2.43;;
8036;SDS011;4061;51.360;7.340;2023-02-13T02:55:16;3.90;;;2.20;;
8036;SDS011;4061;51.360;7.340;2023-02-13T02:57:47;2.50;;;2.10;;
8036;SDS011;4061;51.360;7.340;2023-02-13T03:00:34;3.40;;;2.47;;
8036;SDS011;4061;51.360;7.340;2023-02-13T03:03:22;7.87;;;2.20;;
8036;SDS011;4061;51.360;7.340;2023-02-13T03:06:11;4.67;;;2.60;;
8036;SDS011;4061;51.360;7.340;2023-02-13T03:08:41;3.33;;;2.03;;
8036;SDS011;4061;51.360;7.340;2023-02-13T03:11:27;4.30;;;2.03;;
8036;SDS011;4061;51.360;7.340;2023-02-13T03:14:12;3.30;;;2.57;;
8036;SDS011;4061;51.360;7.340;2023-02-13T03:16:40;2.60;;;2.37;;
8036;SDS011;4061;51.360;7.340;2023-02-13T03:19:30;4.13;;;2.20;;
8036;SDS011;4061;51.360;7.340;2023-02-13T03:22:21;5.17;;;2.43;;
8036;SDS011;4061;51.360;7.340;2023-02-13T03:24:52;3.03;;;2.47;;
8036;SDS011;4061;51.360;7.340;2023-02-13T03:27:27;2.10;;;1.87;;
8036;SDS011;4061;51.360;7.340;2023-02-13T03:30:15;3.20;;;2.27;;
8036;SDS011;4061;51.360;7.340;2023-02-13T03:32:46;4.53;;;2.67;;
8036;SDS011;4061;51.360;7.340;2023-02-13T03:35:23;4.37;;;3.13;;
8036;SDS011;4061;51.360;7.340;2023-02-13T03:38:12;5.70;;;2.43;;
8036;SDS011;4061;51.360;7.340;2023-02-13T03:40:42;5.03;;;3.43;;
8036;SDS011;4061;51.360;7.340;2023-02-13T03:43:27;5.67;;;3.37;;
8036;SDS011;4061;51.360;7.340;2023-02-13T03:45:55;3.30;;;2.30;;
8036;SDS011;4061;51.360;7.340;2023-02-13T03:48:26;4.23;;;2.87;;
8036;SDS011;4061;51.360;7.340;2023-02-13T03:51:13;4.63;;;2.70;;
8036;SDS011;4061;51.360;7.340;2023-02-13T03:53:41;6.07;;;2.97;;
8036;SDS011;4061;51.360;7.340;2023-02-13T03:56:11;4.70;;;2.87;;
8036;SDS011;4061;51.360;7.340;2023-02-13T03:58:57;5.50;;;3.03;;
8036;SDS011;4061;51.360;7.340;2023-02-13T04:01:42;5.67;;;3.27;;
8036;SDS011;4061;51.360;7.340;2023-02-13T04:04:10;5.77;;;3.60;;
8036;SDS011;4061;51.360;7.340;2023-02-13T04:06:41;5.90;;;3.43;;
8036;SDS011;4061;51.360;7.340;2023-02-13T04:09:12;7.50;;;3.67;;
8036;SDS011;4061;51.360;7.340;2023-02-13T04:11:41;5.43;;;3.40;;
8036;SDS011;4061;51.360;7.340;2023-02-13T04:14:12;7.63;;;3.13;;
8036;SDS011;4061;51.360;7.340;2023-02-13T04:16:42;4.20;;;2.73;;
8036;SDS011;4061;51.360;7.340;2023-02-13T04:19:10;8.20;;;3.57;;
8036;SDS011;4061;51.360;7.340;2023-02-13T04:21:38;3.97;;;3.00;;
8036;SDS011;4061;51.360;7.340;2023-02-13T04:24:07;4.60;;;3.20;;
8036;SDS011;4061;51.360;7.340;2023-02-13T04:26:35;5.37;;;3.27;;
8036;SDS011;4061;51.360;7.340;2023-02-13T04:29:03;6.43;;;3.80;;
8036;SDS011;4061;51.360;7.340;2023-02-13T04:31:30;6.30;;;3.67;;
8036;SDS011;4061;51.360;7.340;2023-02-13T04:33:57;7.90;;;3.53;;
8036;SDS011;4061;51.360;7.340;2023-02-13T04:36:24;5.17;;;3.70;;
8036;SDS011;4061;51.360;7.340;2023-02-13T04:38:51;6.77;;;3.47;;
8036;SDS011;4061;51.360;7.340;2023-02-13T04:41:20;4.33;;;3.23;;
8036;SDS011;4061;51.360;7.340;2023-02-13T04:43:47;6.90;;;3.63;;
8036;SDS011;4061;51.360;7.340;2023-02-13T04:46:16;6.70;;;3.60;;
8036;SDS011;4061;51.360;7.340;2023-02-13T04:48:43;5.93;;;4.00;;
8036;SDS011;4061;51.360;7.340;2023-02-13T04:51:10;6.40;;;3.47;;
8036;SDS011;4061;51.360;7.340;2023-02-13T04:53:37;7.47;;;3.43;;
8036;SDS011;4061;51.360;7.340;2023-02-13T04:56:05;5.13;;;3.30;;
8036;SDS011;4061;51.360;7.340;2023-02-13T04:58:33;6.87;;;3.90;;
8036;SDS011;4061;51.360;7.340;2023-02-13T05:01:00;6.83;;;3.70;;
8036;SDS011;4061;51.360;7.340;2023-02-13T05:03:28;6.10;;;3.97;;
8036;SDS011;4061;51.360;7.340;2023-02-13T05:05:55;7.43;;;3.63;;
8036;SDS011;4061;51.360;7.340;2023-02-13T05:08:22;6.50;;;3.63;;
8036;SDS011;4061;51.360;7.340;2023-02-13T05:10:49;8.37;;;4.50;;
8036;SDS011;4061;51.360;7.340;2023-02-13T05:13:16;8.70;;;3.57;;
8036;SDS011;4061;51.360;7.340;2023-02-13T05:15:47;6.30;;;3.70;;
8036;SDS011;4061;51.360;7.340;2023-02-13T05:18:16;6.10;;;3.53;;
8036;SDS011;4061;51.360;7.340;2023-02-13T05:20:43;7.80;;;3.80;;
8036;SDS011;4061;51.360;7.340;2023-02-13T05:23:30;7.33;;;3.43;;
8036;SDS011;4061;51.360;7.340;2023-02-13T05:25:57;7.43;;;3.27;;
8036;SDS011;4061;51.360;7.340;2023-02-13T05:28:24;8.20;;;4.07;;
8036;SDS011;4061;51.360;7.340;2023-02-13T05:31:10;8.17;;;4.33;;
8036;SDS011;4061;51.360;7.340;2023-02-13T05:33:37;6.53;;;3.70;;
8036;SDS011;4061;51.360;7.340;2023-02-13T05:36:04;7.67;;;4.17;;
8036;SDS011;4061;51.360;7.340;2023-02-13T05:38:32;7.87;;;4.33;;
8036;SDS011;4061;51.360;7.340;2023-02-13T05:40:59;7.60;;;3.80;;
8036;SDS011;4061;51.360;7.340;2023-02-13T05:43:26;6.63;;;3.90;;
8036;SDS011;4061;51.360;7.340;2023-02-13T05:45:59;8.30;;;4.13;;
8036;SDS011;4061;51.360;7.340;2023-02-13T05:48:28;6.33;;;4.03;;
8036;SDS011;4061;51.360;7.340;2023-02-13T05:50:55;7.57;;;4.13;;
8036;SDS011;4061;51.360;7.340;2023-02-13T05:53:22;8.83;;;4.47;;
8036;SDS011;4061;51.360;7.340;2023-02-13T05:55:49;11.53;;;4.60;;
8036;SDS011;4061;51.360;7.340;2023-02-13T05:58:17;9.83;;;4.70;;
8036;SDS011;4061;51.360;7.340;2023-02-13T06:00:44;8.27;;;4.07;;
8036;SDS011;4061;51.360;7.340;2023-02-13T06:03:11;11.10;;;4.00;;
8036;SDS011;4061;51.360;7.340;2023-02-13T06:05:40;6.83;;;4.70;;
8036;SDS011;4061;51.360;7.340;2023-02-13T06:08:07;9.17;;;4.23;;
8036;SDS011;4061;51.360;7.340;2023-02-13T06:10:34;8.70;;;4.37;;
8036;SDS011;4061;51.360;7.340;2023-02-13T06:13:01;8.73;;;4.17;;
8036;SDS011;4061;51.360;7.340;2023-02-13T06:15:28;8.73;;;4.37;;
8036;SDS011;4061;51.360;7.340;2023-02-13T06:17:56;7.67;;;4.33;;
8036;SDS011;4061;51.360;7.340;2023-02-13T06:20:23;12.23;;;5.43;;
8036;SDS011;4061;51.360;7.340;2023-02-13T06:22:51;10.43;;;4.77;;
8036;SDS011;4061;51.360;7.340;2023-02-13T06:25:19;10.67;;;4.07;;
8036;SDS011;4061;51.360;7.340;2023-02-13T06:27:46;7.13;;;4.33;;
8036;SDS011;4061;51.360;7.340;2023-02-13T06:30:14;7.63;;;4.90;;
8036;SDS011;4061;51.360;7.340;2023-02-13T06:32:41;7.20;;;4.23;;
8036;SDS011;4061;51.360;7.340;2023-02-13T06:35:08;8.73;;;5.10;;
8036;SDS011;4061;51.360;7.340;2023-02-13T06:37:35;8.80;;;4.53;;
8036;SDS011;4061;51.360;7.340;2023-02-13T06:40:05;7.80;;;4.43;;
8036;SDS011;4061;51.360;7.340;2023-02-13T06:42:32;8.63;;;4.57;;
8036;SDS011;4061;51.360;7.340;2023-02-13T06:45:00;12.07;;;5.47;;
8036;SDS011;4061;51.360;7.340;2023-02-13T06:47:27;8.83;;;4.73;;
8036;SDS011;4061;51.360;7.340;2023-02-13T06:49:54;9.03;;;4.53;;
8036;SDS011;4061;51.360;7.340;2023-02-13T06:52:21;10.23;;;5.23;;
8036;SDS011;4061;51.360;7.340;2023-02-13T06:54:48;9.67;;;5.17;;
8036;SDS011;4061;51.360;7.340;2023-02-13T06:57:17;11.23;;;5.50;;
8036;SDS011;4061;51.360;7.340;2023-02-13T06:59:44;11.37;;;4.83;;
8036;SDS011;4061;51.360;7.340;2023-02-13T07:02:11;8.80;;;5.37;;
8036;SDS011;4061;51.360;7.340;2023-02-13T07:04:39;11.20;;;5.43;;
8036;SDS011;4061;51.360;7.340;2023-02-13T07:07:06;11.93;;;5.47;;
8036;SDS011;4061;51.360;7.340;2023-02-13T07:09:33;10.63;;;4.97;;
8036;SDS011;4061;51.360;7.340;2023-02-13T07:12:01;14.37;;;6.13;;
8036;SDS011;4061;51.360;7.340;2023-02-13T07:14:29;8.50;;;5.10;;
8036;SDS011;4061;51.360;7.340;2023-02-13T07:16:57;10.63;;;5.60;;
8036;SDS011;4061;51.360;7.340;2023-02-13T07:19:24;11.87;;;5.13;;
8036;SDS011;4061;51.360;7.340;2023-02-13T07:21:51;11.27;;;5.33;;
8036;SDS011;4061;51.360;7.340;2023-02-13T07:24:18;9.83;;;5.17;;
8036;SDS011;4061;51.360;7.340;2023-02-13T07:26:45;11.97;;;5.73;;
8036;SDS011;4061;51.360;7.340;2023-02-13T07:29:12;10.67;;;5.93;;
8036;SDS011;4061;51.360;7.340;2023-02-13T07:31:41;12.00;;;6.20;;
8036;SDS011;4061;51.360;7.340;2023-02-13T07:34:08;12.37;;;5.37;;
8036;SDS011;4061;51.360;7.340;2023-02-13T07:36:35;9.13;;;5.57;;
8036;SDS011;4061;51.360;7.340;2023-02-13T07:39:02;10.17;;;5.27;;
8036;SDS011;4061;51.360;7.340;2023-02-13T07:41:29;12.83;;;6.27;;
8036;SDS011;4061;51.360;7.340;2023-02-13T07:43:56;9.90;;;5.60;;
8036;SDS011;4061;51.360;7.340;2023-02-13T07:46:24;11.70;;;6.07;;
8036;SDS011;4061;51.360;7.340;2023-02-13T07:48:52;9.13;;;5.00;;
8036;SDS011;4061;51.360;7.340;2023-02-13T07:51:20;8.97;;;4.87;;
8036;SDS011;4061;51.360;7.340;2023-02-13T07:53:49;9.70;;;5.47;;
8036;SDS011;4061;51.360;7.340;2023-02-13T07:56:16;11.47;;;5.50;;
8036;SDS011;4061;51.360;7.340;2023-02-13T07:58:44;10.53;;;5.23;;
8036;SDS011;4061;51.360;7.340;2023-02-13T08:01:12;7.33;;;3.97;;
8036;SDS011;4061;51.360;7.340;2023-02-13T08:03:40;9.60;;;5.37;;
8036;SDS011;4061;51.360;7.340;2023-02-13T08:06:08;10.83;;;5.23;;
8036;SDS011;4061;51.360;7.340;2023-02-13T08:08:35;10.33;;;5.40;;
8036;SDS011;4061;51.360;7.340;2023-02-13T08:11:03;8.93;;;5.17;;
8036;SDS011;4061;51.360;7.340;2023-02-13T08:13:49;8.00;;;5.30;;
8036;SDS011;4061;51.360;7.340;2023-02-13T08:16:17;8.70;;;4.73;;
8036;SDS011;4061;51.360;7.340;2023-02-13T08:18:44;7.73;;;4.27;;
8036;SDS011;4061;51.360;7.340;2023-02-13T08:21:12;10.57;;;4.77;;
8036;SDS011;4061;51.360;7.340;2023-02-13T08:23:40;10.47;;;5.27;;
8036;SDS011;4061;51.360;7.340;2023-02-13T08:26:07;8.43;;;5.23;;
8036;SDS011;4061;51.360;7.340;2023-02-13T08:28:35;12.27;;;5.07;;
8036;SDS011;4061;51.360;7.340;2023-02-13T08:31:08;8.97;;;4.60;;
8036;SDS011;4061;51.360;7.340;2023-02-13T08:33:35;9.53;;;4.43;;
8036;SDS011;4061;51.360;7.340;2023-02-13T08:36:02;9.33;;;4.40;;
8036;SDS011;4061;51.360;7.340;2023-02-13T08:38:31;8.10;;;4.80;;
8036;SDS011;4061;51.360;7.340;2023-02-13T08:40:59;11.50;;;5.87;;
8036;SDS011;4061;51.360;7.340;2023-02-13T08:43:26;7.43;;;4.03;;
8036;SDS011;4061;51.360;7.340;2023-02-13T08:45:53;7.67;;;4.10;;
8036;SDS011;4061;51.360;7.340;2023-02-13T08:48:23;5.63;;;3.57;;
8036;SDS011;4061;51.360;7.340;2023-02-13T08:50:50;7.23;;;4.47;;
8036;SDS011;4061;51.360;7.340;2023-02-13T08:53:18;8.60;;;4.33;;
8036;SDS011;4061;51.360;7.340;2023-02-13T08:55:51;7.23;;;4.00;;
8036;SDS011;4061;51.360;7.340;2023-02-13T08:58:19;7.03;;;3.90;;
8036;SDS011;4061;51.360;7.340;2023-02-13T09:00:46;6.53;;;3.80;;
8036;SDS011;4061;51.360;7.340;2023-02-13T09:03:13;6.53;;;3.97;;
8036;SDS011;4061;51.360;7.340;2023-02-13T09:05:40;8.47;;;4.17;;
8036;SDS011;4061;51.360;7.340;2023-02-13T09:08:08;6.57;;;4.00;;
8036;SDS011;4061;51.360;7.340;2023-02-13T09:10:36;11.80;;;4.20;;
8036;SDS011;4061;51.360;7.340;2023-02-13T09:13:05;6.60;;;4.60;;
8036;SDS011;4061;51.360;7.340;2023-02-13T09:15:32;6.60;;;3.83;;
8036;SDS011;4061;51.360;7.340;2023-02-13T09:17:59;5.53;;;4.03;;
8036;SDS011;4061;51.360;7.340;2023-02-13T09:20:27;10.10;;;4.70;;
8036;SDS011;4061;51.360;7.340;2023-02-13T09:22:54;5.67;;;3.40;;
8036;SDS011;4061;51.360;7.340;2023-02-13T09:25:21;6.87;;;4.40;;
8036;SDS011;4061;51.360;7.340;2023-02-13T09:27:49;6.30;;;4.40;;
8036;SDS011;4061;51.360;7.340;2023-02-13T09:30:17;4.43;;;3.47;;
8036;SDS011;4061;51.360;7.340;2023-02-13T09:32:48;8.40;;;3.60;;
8036;SDS011;4061;51.360;7.340;2023-02-13T09:35:15;7.73;;;3.70;;
8036;SDS011;4061;51.360;7.340;2023-02-13T09:37:43;6.23;;;3.80;;
8036;SDS011;4061;51.360;7.340;2023-02-13T09:40:15;6.83;;;3.47;;
8036;SDS011;4061;51.360;7.340;2023-02-13T09:42:43;3.80;;;3.40;;
8036;SDS011;4061;51.360;7.340;2023-02-13T09:45:11;7.77;;;3.83;;
8036;SDS011;4061;51.360;7.340;2023-02-13T09:47:42;6.63;;;3.80;;
8036;SDS011;4061;51.360;7.340;2023-02-13T09:50:11;5.50;;;3.67;;
8036;SDS011;4061;51.360;7.340;2023-02-13T09:52:39;3.97;;;3.57;;
8036;SDS011;4061;51.360;7.340;2023-02-13T09:55:13;5.57;;;3.83;;
8036;SDS011;4061;51.360;7.340;2023-02-13T09:57:41;6.70;;;3.73;;
8036;SDS011;4061;51.360;7.340;2023-02-13T10:00:11;5.13;;;3.87;;
8036;SDS011;4061;51.360;7.340;2023-02-13T10:02:45;5.00;;;3.40;;
8036;SDS011;4061;51.360;7.340;2023-02-13T10:05:20;6.03;;;3.30;;
8036;SDS011;4061;51.360;7.340;2023-02-13T10:07:52;5.15;;;3.67;;
8036;SDS011;4061;51.360;7.340;2023-02-13T10:10:26;9.07;;;3.80;;
8036;SDS011;4061;51.360;7.340;2023-02-13T10:12:55;7.97;;;3.80;;
8036;SDS011;4061;51.360;7.340;2023-02-13T10:15:28;4.75;;;3.33;;
8036;SDS011;4061;51.360;7.340;2023-02-13T10:17:58;6.23;;;3.20;;
8036;SDS011;4061;51.360;7.340;2023-02-13T10:20:28;3.90;;;3.25;;
8036;SDS011;4061;51.360;7.340;2023-02-13T10:22:57;7.07;;;3.30;;
8036;SDS011;4061;51.360;7.340;2023-02-13T10:25:26;6.10;;;4.13;;
8036;SDS011;4061;51.360;7.340;2023-02-13T10:27:54;3.97;;;2.83;;
8036;SDS011;4061;51.360;7.340;2023-02-13T10:30:23;4.30;;;3.20;;
8036;SDS011;4061;51.360;7.340;2023-02-13T10:32:55;5.75;;;3.05;;
8036;SDS011;4061;51.360;7.340;2023-02-13T10:35:40;7.68;;;3.28;;
8036;SDS011;4061;51.360;7.340;2023-02-13T10:38:11;4.53;;;3.00;;
8036;SDS011;4061;51.360;7.340;2023-02-13T10:40:42;6.45;;;4.00;;
8036;SDS011;4061;51.360;7.340;2023-02-13T10:43:12;5.10;;;3.05;;
8036;SDS011;4061;51.360;7.340;2023-02-13T10:45:58;3.03;;;2.58;;
8036;SDS011;4061;51.360;7.340;2023-02-13T10:48:34;5.95;;;2.97;;
8036;SDS011;4061;51.360;7.340;2023-02-13T10:51:07;4.25;;;3.08;;
8036;SDS011;4061;51.360;7.340;2023-02-13T10:53:43;3.90;;;2.72;;
8036;SDS011;4061;51.360;7.340;2023-02-13T10:56:16;3.88;;;2.33;;
8036;SDS011;4061;51.360;7.340;2023-02-13T10:58:50;4.85;;;3.00;;
8036;SDS011;4061;51.360;7.340;2023-02-13T11:01:21;5.40;;;3.47;;
8036;SDS011;4061;51.360;7.340;2023-02-13T11:03:59;5.95;;;2.97;;
8036;SDS011;4061;51.360;7.340;2023-02-13T11:06:29;7.10;;;3.35;;
8036;SDS011;4061;51.360;7.340;2023-02-13T11:08:56;4.60;;;3.13;;
8036;SDS011;4061;51.360;7.340;2023-02-13T11:11:27;5.18;;;2.92;;
8036;SDS011;4061;51.360;7.340;2023-02-13T11:14:06;7.30;;;3.75;;
8036;SDS011;4061;51.360;7.340;2023-02-13T11:16:37;5.32;;;3.33;;
8036;SDS011;4061;51.360;7.340;2023-02-13T11:19:04;6.53;;;3.42;;
8036;SDS011;4061;51.360;7.340;2023-02-13T11:21:33;3.97;;;2.95;;
8036;SDS011;4061;51.360;7.340;2023-02-13T11:24:02;4.47;;;2.88;;
8036;SDS011;4061;51.360;7.340;2023-02-13T11:26:30;3.95;;;3.00;;
8036;SDS011;4061;51.360;7.340;2023-02-13T11:28:59;5.55;;;3.13;;
8036;SDS011;4061;51.360;7.340;2023-02-13T11:31:27;6.47;;;3.15;;
8036;SDS011;4061;51.360;7.340;2023-02-13T11:33:54;5.30;;;3.13;;
8036;SDS011;4061;51.360;7.340;2023-02-13T11:36:23;3.13;;;2.42;;
8036;SDS011;4061;51.360;7.340;2023-02-13T11:38:59;4.85;;;3.20;;
8036;SDS011;4061;51.360;7.340;2023-02-13T11:41:27;4.35;;;2.58;;
8036;SDS011;4061;51.360;7.340;2023-02-13T11:43:55;4.22;;;2.88;;
8036;SDS011;4061;51.360;7.340;2023-02-13T11:46:25;5.32;;;2.85;;
8036;SDS011;4061;51.360;7.340;2023-02-13T11:48:57;6.78;;;2.70;;
8036;SDS011;4061;51.360;7.340;2023-02-13T11:51:37;6.68;;;3.53;;
8036;SDS011;4061;51.360;7.340;2023-02-13T11:54:06;4.63;;;3.80;;
8036;SDS011;4061;51.360;7.340;2023-02-13T11:56:46;3.55;;;3.22;;
8036;SDS011;4061;51.360;7.340;2023-02-13T11:59:14;4.57;;;2.97;;
8036;SDS011;4061;51.360;7.340;2023-02-13T12:01:41;4.65;;;2.75;;
8036;SDS011;4061;51.360;7.340;2023-02-13T12:04:14;4.22;;;2.50;;
8036;SDS011;4061;51.360;7.340;2023-02-13T12:06:56;6.03;;;3.22;;
8036;SDS011;4061;51.360;7.340;2023-02-13T12:09:25;6.30;;;2.92;;
8036;SDS011;4061;51.360;7.340;2023-02-13T12:11:53;5.15;;;3.33;;
8036;SDS011;4061;51.360;7.340;2023-02-13T12:14:22;3.80;;;2.97;;
8036;SDS011;4061;51.360;7.340;2023-02-13T12:16:51;3.60;;;3.00;;
8036;SDS011;4061;51.360;7.340;2023-02-13T12:19:19;6.43;;;3.50;;
8036;SDS011;4061;51.360;7.340;2023-02-13T12:21:52;6.93;;;3.03;;
8036;SDS011;4061;51.360;7.340;2023-02-13T12:24:27;5.78;;;2.80;;
8036;SDS011;4061;51.360;7.340;2023-02-13T12:27:02;5.63;;;2.97;;
8036;SDS011;4061;51.360;7.340;2023-02-13T12:29:41;4.47;;;2.60;;
8036;SDS011;4061;51.360;7.340;2023-02-13T12:32:13;11.32;;;3.30;;
8036;SDS011;4061;51.360;7.340;2023-02-13T12:34:50;2.85;;;2.38;;
8036;SDS011;4061;51.360;7.340;2023-02-13T12:37:27;5.22;;;2.67;;
8036;SDS011;4061;51.360;7.340;2023-02-13T12:40:04;6.07;;;2.92;;
8036;SDS011;4061;51.360;7.340;2023-02-13T12:42:40;3.53;;;2.78;;
8036;SDS011;4061;51.360;7.340;2023-02-13T12:45:13;4.45;;;3.03;;
8036;SDS011;4061;51.360;7.340;2023-02-13T12:47:45;4.50;;;3.00;;
8036;SDS011;4061;51.360;7.340;2023-02-13T12:50:32;2.65;;;2.40;;
8036;SDS011;4061;51.360;7.340;2023-02-13T12:53:07;4.65;;;2.85;;
8036;SDS011;4061;51.360;7.340;2023-02-13T12:55:44;6.30;;;3.10;;
8036;SDS011;4061;51.360;7.340;2023-02-13T12:58:19;6.93;;;2.90;;
8036;SDS011;4061;51.360;7.340;2023-02-13T13:00:53;4.78;;;2.33;;
8036;SDS011;4061;51.360;7.340;2023-02-13T13:03:27;6.03;;;3.22;;
8036;SDS011;4061;51.360;7.340;2023-02-13T13:06:03;3.60;;;2.20;;
8036;SDS011;4061;51.360;7.340;2023-02-13T13:11:25;11.18;;;4.03;;
8036;SDS011;4061;51.360;7.340;2023-02-13T13:13:55;5.45;;;2.88;;
8036;SDS011;4061;51.360;7.340;2023-02-13T13:16:26;4.55;;;2.58;;
8036;SDS011;4061;51.360;7.340;2023-02-13T13:18:58;3.88;;;2.53;;
8036;SDS011;4061;51.360;7.340;2023-02-13T13:21:30;4.97;;;2.88;;
8036;SDS011;4061;51.360;7.340;2023-02-13T13:24:02;7.10;;;2.60;;
8036;SDS011;4061;51.360;7.340;2023-02-13T13:26:34;4.60;;;2.83;;
8036;SDS011;4061;51.360;7.340;2023-02-13T13:29:03;5.22;;;3.10;;
8036;SDS011;4061;51.360;7.340;2023-02-13T13:31:31;4.03;;;2.60;;
8036;SDS011;4061;51.360;7.340;2023-02-13T13:34:01;3.50;;;2.58;;
8036;SDS011;4061;51.360;7.340;2023-02-13T13:36:33;4.20;;;2.72;;
8036;SDS011;4061;51.360;7.340;2023-02-13T13:39:04;3.67;;;2.65;;
8036;SDS011;4061;51.360;7.340;2023-02-13T13:41:37;4.40;;;3.75;;
8036;SDS011;4061;51.360;7.340;2023-02-13T13:46:56;5.72;;;2.53;;
8036;SDS011;4061;51.360;7.340;2023-02-13T13:49:26;5.45;;;2.70;;
8036;SDS011;4061;51.360;7.340;2023-02-13T13:52:08;4.88;;;2.92;;
8036;SDS011;4061;51.360;7.340;2023-02-13T13:54:35;7.78;;;2.88;;
8036;SDS011;4061;51.360;7.340;2023-02-13T13:57:05;5.07;;;3.03;;
8036;SDS011;4061;51.360;7.340;2023-02-13T14:02:25;6.15;;;2.42;;
8036;SDS011;4061;51.360;7.340;2023-02-13T14:04:59;5.15;;;2.35;;
8036;SDS011;4061;51.360;7.340;2023-02-13T14:07:32;2.65;;;1.85;;
8036;SDS011;4061;51.360;7.340;2023-02-13T14:09:59;2.60;;;2.40;;
8036;SDS011;4061;51.360;7.340;2023-02-13T14:12:43;4.25;;;2.33;;
8036;SDS011;4061;51.360;7.340;2023-02-13T14:17:54;1.92;;;1.35;;
8036;SDS011;4061;51.360;7.340;2023-02-13T14:20:30;3.20;;;1.73;;
8036;SDS011;4061;51.360;7.340;2023-02-13T14:23:05;0.77;;;0.77;;
8036;SDS011;4061;51.360;7.340;2023-02-13T14:25:32;0.50;;;0.50;;
8036;SDS011;4061;51.360;7.340;2023-02-13T14:28:02;0.73;;;0.73;;
8036;SDS011;4061;51.360;7.340;2023-02-13T14:30:31;0.50;;;0.50;;
8036;SDS011;4061;51.360;7.340;2023-02-13T14:32:59;1.05;;;0.50;;
8036;SDS011;4061;51.360;7.340;2023-02-13T14:35:28;1.63;;;0.40;;
8036;SDS011;4061;51.360;7.340;2023-02-13T14:37:57;4.03;;;0.32;;
8036;SDS011;4061;51.360;7.340;2023-02-13T14:40:29;1.65;;;0.40;;
8036;SDS011;4061;51.360;7.340;2023-02-13T14:42:58;0.40;;;0.40;;
8036;SDS011;4061;51.360;7.340;2023-02-13T14:45:28;1.00;;;0.90;;
8036;SDS011;4061;51.360;7.340;2023-02-13T14:47:57;3.10;;;1.40;;
8036;SDS011;4061;51.360;7.340;2023-02-13T14:50:29;0.70;;;0.68;;
8036;SDS011;4061;51.360;7.340;2023-02-13T14:52:58;1.00;;;1.00;;
8036;SDS011;4061;51.360;7.340;2023-02-13T14:55:30;0.43;;;0.43;;
8036;SDS011;4061;51.360;7.340;2023-02-13T14:57:59;0.77;;;0.50;;
8036;SDS011;4061;51.360;7.340;2023-02-13T15:00:33;1.67;;;0.70;;
8036;SDS011;4061;51.360;7.340;2023-02-13T15:03:07;0.47;;;0.47;;
8036;SDS011;4061;51.360;7.340;2023-02-13T15:05:37;0.57;;;0.57;;
8036;SDS011;4061;51.360;7.340;2023-02-13T15:08:05;0.40;;;0.40;;
8036;SDS011;4061;51.360;7.340;2023-02-13T15:10:39;0.60;;;0.60;;
8036;SDS011;4061;51.360;7.340;2023-02-13T15:13:11;1.98;;;0.50;;
8036;SDS011;4061;51.360;7.340;2023-02-13T15:15:40;0.65;;;0.50;;
8036;SDS011;4061;51.360;7.340;2023-02-13T15:18:09;1.63;;;0.70;;
8036;SDS011;4061;51.360;7.340;2023-02-13T15:20:38;0.40;;;0.30;;
8036;SDS011;4061;51.360;7.340;2023-02-13T15:23:07;0.40;;;0.40;;
8036;SDS011;4061;51.360;7.340;2023-02-13T15:25:42;0.32;;;0.30;;
8036;SDS011;4061;51.360;7.340;2023-02-13T15:28:16;1.42;;;0.30;;
8036;SDS011;4061;51.360;7.340;2023-02-13T15:30:53;0.47;;;0.47;;
8036;SDS011;4061;51.360;7.340;2023-02-13T15:33:21;0.65;;;0.65;;
8036;SDS011;4061;51.360;7.340;2023-02-13T15:35:53;0.20;;;0.20;;
8036;SDS011;4061;51.360;7.340;2023-02-13T15:38:22;0.40;;;0.40;;
8036;SDS011;4061;51.360;7.340;2023-02-13T15:40:50;0.93;;;0.47;;
8036;SDS011;4061;51.360;7.340;2023-02-13T15:43:20;0.38;;;0.38;;
8036;SDS011;4061;51.360;7.340;2023-02-13T15:45:48;0.63;;;0.63;;